sensor_id;sensor_type;location;lat;lon;timestamp;temperature;humidity
75164;HTU21D;63746;45.402;37.922;2023-05-29T00:01:15;21.67;64.23
75164;HTU21D;63746;45.402;37.922;2023-05-29T00:03:44;21.64;64.22
75164;HTU21D;63746;45.402;37.922;2023-05-29T00:06:10;21.61;64.24
75164;HTU21D;63746;45.402;37.922;2023-05-29T00:08:36;21.57;64.30
75164;HTU21D;63746;45.402;37.922;2023-05-29T00:11:02;21.52;64.32
75164;HTU21D;63746;45.402;37.922;2023-05-29T00:13:28;21.49;64.39
75164;HTU21D;63746;45.402;37.922;2023-05-29T00:15:54;21.48;64.41
75164;HTU21D;63746;45.402;37.922;2023-05-29T00:18:21;21.47;64.46
75164;HTU21D;63746;45.402;37.922;2023-05-29T00:20:47;21.44;64.49
75164;HTU21D;63746;45.402;37.922;2023-05-29T00:23:13;21.40;64.47
75164;HTU21D;63746;45.402;37.922;2023-05-29T00:25:39;21.38;64.51
75164;HTU21D;63746;45.402;37.922;2023-05-29T00:28:09;21.34;64.54
75164;HTU21D;63746;45.402;37.922;2023-05-29T00:30:35;21.33;64.55
75164;HTU21D;63746;45.402;37.922;2023-05-29T00:33:01;21.31;64.59
75164;HTU21D;63746;45.402;37.922;2023-05-29T00:35:28;21.29;64.58
75164;HTU21D;63746;45.402;37.922;2023-05-29T00:37:54;21.28;64.57
75164;HTU21D;63746;45.402;37.922;2023-05-29T00:40:20;21.23;64.63
75164;HTU21D;63746;45.402;37.922;2023-05-29T00:42:45;21.20;64.66
75164;HTU21D;63746;45.402;37.922;2023-05-29T00:45:11;21.18;64.67
75164;HTU21D;63746;45.402;37.922;2023-05-29T00:47:41;21.16;64.71
75164;HTU21D;63746;45.402;37.922;2023-05-29T00:50:08;21.13;64.70
75164;HTU21D;63746;45.402;37.922;2023-05-29T00:52:35;21.10;64.72
75164;HTU21D;63746;45.402;37.922;2023-05-29T00:55:01;21.08;64.74
75164;HTU21D;63746;45.402;37.922;2023-05-29T00:57:28;21.07;64.73
75164;HTU21D;63746;45.402;37.922;2023-05-29T00:59:55;21.06;64.74
75164;HTU21D;63746;45.402;37.922;2023-05-29T01:02:21;21.05;64.76
75164;HTU21D;63746;45.402;37.922;2023-05-29T01:04:48;21.05;64.78
75164;HTU21D;63746;45.402;37.922;2023-05-29T01:07:14;21.03;64.76
75164;HTU21D;63746;45.402;37.922;2023-05-29T01:09:41;21.00;64.78
75164;HTU21D;63746;45.402;37.922;2023-05-29T01:20:50;20.88;65.05
75164;HTU21D;63746;45.402;37.922;2023-05-29T01:26:21;20.83;65.58
75164;HTU21D;63746;45.402;37.922;2023-05-29T01:28:57;20.80;65.28
75164;HTU21D;63746;45.402;37.922;2023-05-29T01:31:26;20.77;65.08
75164;HTU21D;63746;45.402;37.922;2023-05-29T01:33:53;20.77;65.08
75164;HTU21D;63746;45.402;37.922;2023-05-29T01:36:20;20.76;65.10
75164;HTU21D;63746;45.402;37.922;2023-05-29T01:38:47;20.78;65.11
75164;HTU21D;63746;45.402;37.922;2023-05-29T01:41:14;20.77;65.11
75164;HTU21D;63746;45.402;37.922;2023-05-29T01:43:42;20.79;65.05
75164;HTU21D;63746;45.402;37.922;2023-05-29T01:46:15;20.78;65.21
75164;HTU21D;63746;45.402;37.922;2023-05-29T01:48:42;20.76;65.03
75164;HTU21D;63746;45.402;37.922;2023-05-29T01:51:09;20.76;65.05
75164;HTU21D;63746;45.402;37.922;2023-05-29T01:53:39;20.74;65.08
75164;HTU21D;63746;45.402;37.922;2023-05-29T01:56:06;20.72;65.09
75164;HTU21D;63746;45.402;37.922;2023-05-29T01:58:34;20.72;65.14
75164;HTU21D;63746;45.402;37.922;2023-05-29T02:01:06;20.72;65.21
75164;HTU21D;63746;45.402;37.922;2023-05-29T02:03:32;20.72;65.11
75164;HTU21D;63746;45.402;37.922;2023-05-29T02:05:59;20.72;65.17
75164;HTU21D;63746;45.402;37.922;2023-05-29T02:08:26;20.72;65.17
75164;HTU21D;63746;45.402;37.922;2023-05-29T02:10:53;20.72;65.17
75164;HTU21D;63746;45.402;37.922;2023-05-29T02:13:19;20.71;65.19
75164;HTU21D;63746;45.402;37.922;2023-05-29T02:15:46;20.69;65.18
75164;HTU21D;63746;45.402;37.922;2023-05-29T02:18:14;20.70;65.25
75164;HTU21D;63746;45.402;37.922;2023-05-29T02:20:40;20.69;65.23
75164;HTU21D;63746;45.402;37.922;2023-05-29T02:23:10;20.69;65.37
75164;HTU21D;63746;45.402;37.922;2023-05-29T02:25:36;20.70;65.27
75164;HTU21D;63746;45.402;37.922;2023-05-29T02:28:03;20.68;65.29
75164;HTU21D;63746;45.402;37.922;2023-05-29T02:30:29;20.68;65.30
75164;HTU21D;63746;45.402;37.922;2023-05-29T02:32:55;20.69;65.33
75164;HTU21D;63746;45.402;37.922;2023-05-29T02:35:21;20.70;65.34
75164;HTU21D;63746;45.402;37.922;2023-05-29T02:37:52;20.73;65.47
75164;HTU21D;63746;45.402;37.922;2023-05-29T02:40:18;20.75;65.37
75164;HTU21D;63746;45.402;37.922;2023-05-29T02:42:45;20.77;65.33
75164;HTU21D;63746;45.402;37.922;2023-05-29T02:45:11;20.79;65.33
75164;HTU21D;63746;45.402;37.922;2023-05-29T02:47:38;20.81;65.33
75164;HTU21D;63746;45.402;37.922;2023-05-29T02:50:29;20.84;66.05
75164;HTU21D;63746;45.402;37.922;2023-05-29T02:53:16;20.87;65.37
75164;HTU21D;63746;45.402;37.922;2023-05-29T02:55:42;20.90;65.37
75164;HTU21D;63746;45.402;37.922;2023-05-29T02:58:08;20.91;65.37
75164;HTU21D;63746;45.402;37.922;2023-05-29T03:00:34;20.93;65.34
75164;HTU21D;63746;45.402;37.922;2023-05-29T03:03:00;20.96;65.33
75164;HTU21D;63746;45.402;37.922;2023-05-29T03:05:26;20.98;65.30
75164;HTU21D;63746;45.402;37.922;2023-05-29T03:07:52;21.00;65.26
75164;HTU21D;63746;45.402;37.922;2023-05-29T03:10:18;21.01;65.26
75164;HTU21D;63746;45.402;37.922;2023-05-29T03:12:45;21.03;65.27
75164;HTU21D;63746;45.402;37.922;2023-05-29T03:15:11;21.06;65.23
75164;HTU21D;63746;45.402;37.922;2023-05-29T03:17:37;21.07;65.24
75164;HTU21D;63746;45.402;37.922;2023-05-29T03:20:07;21.08;65.24
75164;HTU21D;63746;45.402;37.922;2023-05-29T03:22:34;21.10;65.24
75164;HTU21D;63746;45.402;37.922;2023-05-29T03:25:02;21.13;65.28
75164;HTU21D;63746;45.402;37.922;2023-05-29T03:27:28;21.16;65.23
75164;HTU21D;63746;45.402;37.922;2023-05-29T03:30:02;21.17;65.24
75164;HTU21D;63746;45.402;37.922;2023-05-29T03:32:29;21.18;65.23
75164;HTU21D;63746;45.402;37.922;2023-05-29T03:34:55;21.19;65.22
75164;HTU21D;63746;45.402;37.922;2023-05-29T03:37:23;21.21;65.25
75164;HTU21D;63746;45.402;37.922;2023-05-29T03:39:50;21.23;65.24
75164;HTU21D;63746;45.402;37.922;2023-05-29T03:42:17;21.22;65.22
75164;HTU21D;63746;45.402;37.922;2023-05-29T03:44:44;21.25;65.24
75164;HTU21D;63746;45.402;37.922;2023-05-29T03:47:11;21.29;65.23
75164;HTU21D;63746;45.402;37.922;2023-05-29T03:49:37;21.30;65.24
75164;HTU21D;63746;45.402;37.922;2023-05-29T03:52:04;21.32;65.24
75164;HTU21D;63746;45.402;37.922;2023-05-29T03:54:30;21.32;65.22
75164;HTU21D;63746;45.402;37.922;2023-05-29T03:56:56;21.36;65.25
75164;HTU21D;63746;45.402;37.922;2023-05-29T03:59:25;21.37;65.27
75164;HTU21D;63746;45.402;37.922;2023-05-29T04:01:51;21.38;65.25
75164;HTU21D;63746;45.402;37.922;2023-05-29T04:04:16;21.40;65.29
75164;HTU21D;63746;45.402;37.922;2023-05-29T04:06:44;21.43;65.30
75164;HTU21D;63746;45.402;37.922;2023-05-29T04:09:11;21.45;65.30
75164;HTU21D;63746;45.402;37.922;2023-05-29T04:11:37;21.46;65.29
75164;HTU21D;63746;45.402;37.922;2023-05-29T04:14:04;21.49;65.29
75164;HTU21D;63746;45.402;37.922;2023-05-29T04:16:30;21.49;65.27
75164;HTU21D;63746;45.402;37.922;2023-05-29T04:18:56;21.53;65.27
75164;HTU21D;63746;45.402;37.922;2023-05-29T04:21:25;21.57;65.29
75164;HTU21D;63746;45.402;37.922;2023-05-29T04:23:53;21.60;65.35
75164;HTU21D;63746;45.402;37.922;2023-05-29T04:26:21;21.66;65.36
75164;HTU21D;63746;45.402;37.922;2023-05-29T04:28:52;21.72;65.37
75164;HTU21D;63746;45.402;37.922;2023-05-29T04:31:26;21.79;65.40
75164;HTU21D;63746;45.402;37.922;2023-05-29T04:33:54;21.87;65.24
75164;HTU21D;63746;45.402;37.922;2023-05-29T04:36:23;21.92;65.25
75164;HTU21D;63746;45.402;37.922;2023-05-29T04:38:54;21.99;65.27
75164;HTU21D;63746;45.402;37.922;2023-05-29T04:41:22;22.06;65.20
75164;HTU21D;63746;45.402;37.922;2023-05-29T04:43:50;22.11;65.08
75164;HTU21D;63746;45.402;37.922;2023-05-29T04:46:21;22.16;65.10
75164;HTU21D;63746;45.402;37.922;2023-05-29T04:48:47;22.20;65.08
75164;HTU21D;63746;45.402;37.922;2023-05-29T04:51:13;22.24;65.00
75164;HTU21D;63746;45.402;37.922;2023-05-29T04:53:42;22.25;64.92
75164;HTU21D;63746;45.402;37.922;2023-05-29T04:56:10;22.25;64.85
75164;HTU21D;63746;45.402;37.922;2023-05-29T04:58:36;22.24;64.82
75164;HTU21D;63746;45.402;37.922;2023-05-29T05:01:04;22.21;64.79
75164;HTU21D;63746;45.402;37.922;2023-05-29T05:03:31;22.19;64.81
75164;HTU21D;63746;45.402;37.922;2023-05-29T05:06:02;22.18;64.92
75164;HTU21D;63746;45.402;37.922;2023-05-29T05:08:30;22.17;64.92
75164;HTU21D;63746;45.402;37.922;2023-05-29T05:10:57;22.17;64.89
75164;HTU21D;63746;45.402;37.922;2023-05-29T05:13:23;22.17;64.91
75164;HTU21D;63746;45.402;37.922;2023-05-29T05:15:51;22.17;64.92
75164;HTU21D;63746;45.402;37.922;2023-05-29T05:18:18;22.14;64.92
75164;HTU21D;63746;45.402;37.922;2023-05-29T05:20:51;22.14;64.94
75164;HTU21D;63746;45.402;37.922;2023-05-29T05:23:17;22.12;64.95
75164;HTU21D;63746;45.402;37.922;2023-05-29T05:25:43;22.13;64.97
75164;HTU21D;63746;45.402;37.922;2023-05-29T05:28:09;22.16;64.97
75164;HTU21D;63746;45.402;37.922;2023-05-29T05:30:35;22.17;64.96
75164;HTU21D;63746;45.402;37.922;2023-05-29T05:33:01;22.19;64.98
75164;HTU21D;63746;45.402;37.922;2023-05-29T05:35:28;22.22;65.01
75164;HTU21D;63746;45.402;37.922;2023-05-29T05:37:53;22.23;65.02
75164;HTU21D;63746;45.402;37.922;2023-05-29T05:40:25;22.25;65.05
75164;HTU21D;63746;45.402;37.922;2023-05-29T05:42:58;22.29;65.07
75164;HTU21D;63746;45.402;37.922;2023-05-29T05:45:42;22.32;65.01
75164;HTU21D;63746;45.402;37.922;2023-05-29T05:48:09;22.35;65.01
75164;HTU21D;63746;45.402;37.922;2023-05-29T05:50:36;22.39;64.99
75164;HTU21D;63746;45.402;37.922;2023-05-29T05:53:02;22.42;64.96
75164;HTU21D;63746;45.402;37.922;2023-05-29T05:55:28;22.44;64.95
75164;HTU21D;63746;45.402;37.922;2023-05-29T05:57:54;22.46;64.92
75164;HTU21D;63746;45.402;37.922;2023-05-29T06:00:23;22.48;64.92
75164;HTU21D;63746;45.402;37.922;2023-05-29T06:02:53;22.49;64.87
75164;HTU21D;63746;45.402;37.922;2023-05-29T06:05:36;22.51;64.92
75164;HTU21D;63746;45.402;37.922;2023-05-29T06:08:03;22.53;64.92
75164;HTU21D;63746;45.402;37.922;2023-05-29T06:10:29;22.55;64.88
75164;HTU21D;63746;45.402;37.922;2023-05-29T06:12:56;22.55;64.85
75164;HTU21D;63746;45.402;37.922;2023-05-29T06:15:28;22.56;64.88
75164;HTU21D;63746;45.402;37.922;2023-05-29T06:17:54;22.56;64.88
75164;HTU21D;63746;45.402;37.922;2023-05-29T06:20:21;22.58;64.89
75164;HTU21D;63746;45.402;37.922;2023-05-29T06:22:49;22.60;64.84
75164;HTU21D;63746;45.402;37.922;2023-05-29T06:25:19;22.61;64.90
75164;HTU21D;63746;45.402;37.922;2023-05-29T06:27:45;22.62;64.86
75164;HTU21D;63746;45.402;37.922;2023-05-29T06:30:12;22.64;64.90
75164;HTU21D;63746;45.402;37.922;2023-05-29T06:32:39;22.68;64.89
75164;HTU21D;63746;45.402;37.922;2023-05-29T06:35:07;22.70;64.90
75164;HTU21D;63746;45.402;37.922;2023-05-29T06:37:33;22.73;64.91
75164;HTU21D;63746;45.402;37.922;2023-05-29T06:39:59;22.79;64.88
75164;HTU21D;63746;45.402;37.922;2023-05-29T06:42:25;22.82;64.87
75164;HTU21D;63746;45.402;37.922;2023-05-29T06:44:57;22.84;64.84
75164;HTU21D;63746;45.402;37.922;2023-05-29T06:47:23;22.85;64.82
75164;HTU21D;63746;45.402;37.922;2023-05-29T06:49:50;22.88;64.85
75164;HTU21D;63746;45.402;37.922;2023-05-29T06:52:16;22.92;64.83
75164;HTU21D;63746;45.402;37.922;2023-05-29T06:55:17;22.95;64.85
75164;HTU21D;63746;45.402;37.922;2023-05-29T06:57:43;22.99;64.82
75164;HTU21D;63746;45.402;37.922;2023-05-29T07:00:11;23.02;64.84
75164;HTU21D;63746;45.402;37.922;2023-05-29T07:02:44;23.05;64.76
75164;HTU21D;63746;45.402;37.922;2023-05-29T07:05:10;23.05;64.73
75164;HTU21D;63746;45.402;37.922;2023-05-29T07:07:37;23.08;64.77
75164;HTU21D;63746;45.402;37.922;2023-05-29T07:10:03;23.12;64.72
75164;HTU21D;63746;45.402;37.922;2023-05-29T07:12:29;23.13;64.72
75164;HTU21D;63746;45.402;37.922;2023-05-29T07:14:56;23.16;64.76
75164;HTU21D;63746;45.402;37.922;2023-05-29T07:17:21;23.20;64.78
75164;HTU21D;63746;45.402;37.922;2023-05-29T07:19:58;23.21;64.69
75164;HTU21D;63746;45.402;37.922;2023-05-29T07:22:24;23.21;64.66
75164;HTU21D;63746;45.402;37.922;2023-05-29T07:24:50;23.21;64.66
75164;HTU21D;63746;45.402;37.922;2023-05-29T07:27:16;23.18;64.66
75164;HTU21D;63746;45.402;37.922;2023-05-29T07:29:42;23.20;64.72
75164;HTU21D;63746;45.402;37.922;2023-05-29T07:32:08;23.20;64.69
75164;HTU21D;63746;45.402;37.922;2023-05-29T07:34:36;23.21;64.70
75164;HTU21D;63746;45.402;37.922;2023-05-29T07:37:06;23.21;64.79
75164;HTU21D;63746;45.402;37.922;2023-05-29T07:39:35;23.20;64.69
75164;HTU21D;63746;45.402;37.922;2023-05-29T07:42:08;23.16;64.65
75164;HTU21D;63746;45.402;37.922;2023-05-29T07:44:36;23.15;64.71
75164;HTU21D;63746;45.402;37.922;2023-05-29T07:47:02;23.14;64.71
75164;HTU21D;63746;45.402;37.922;2023-05-29T07:49:39;23.14;64.69
75164;HTU21D;63746;45.402;37.922;2023-05-29T07:52:07;23.13;64.69
75164;HTU21D;63746;45.402;37.922;2023-05-29T07:54:33;23.10;64.70
75164;HTU21D;63746;45.402;37.922;2023-05-29T07:57:01;23.08;64.74
75164;HTU21D;63746;45.402;37.922;2023-05-29T07:59:42;23.06;64.83
75164;HTU21D;63746;45.402;37.922;2023-05-29T08:02:09;23.03;64.75
75164;HTU21D;63746;45.402;37.922;2023-05-29T08:05:03;22.99;64.80
75164;HTU21D;63746;45.402;37.922;2023-05-29T08:07:29;22.96;64.78
75164;HTU21D;63746;45.402;37.922;2023-05-29T08:09:56;22.92;64.77
75164;HTU21D;63746;45.402;37.922;2023-05-29T08:12:22;22.88;64.78
75164;HTU21D;63746;45.402;37.922;2023-05-29T08:14:50;22.84;64.82
75164;HTU21D;63746;45.402;37.922;2023-05-29T08:17:16;22.81;64.83
75164;HTU21D;63746;45.402;37.922;2023-05-29T08:19:42;22.77;64.85
75164;HTU21D;63746;45.402;37.922;2023-05-29T08:22:12;22.73;64.95
75164;HTU21D;63746;45.402;37.922;2023-05-29T08:24:38;22.69;64.88
75164;HTU21D;63746;45.402;37.922;2023-05-29T08:27:04;22.66;64.93
75164;HTU21D;63746;45.402;37.922;2023-05-29T08:29:30;22.62;64.95
75164;HTU21D;63746;45.402;37.922;2023-05-29T08:31:56;22.60;64.97
75164;HTU21D;63746;45.402;37.922;2023-05-29T08:34:22;22.52;65.00
75164;HTU21D;63746;45.402;37.922;2023-05-29T08:36:48;22.47;65.04
75164;HTU21D;63746;45.402;37.922;2023-05-29T08:39:14;22.44;65.11
75164;HTU21D;63746;45.402;37.922;2023-05-29T08:44:13;22.39;65.22
75164;HTU21D;63746;45.402;37.922;2023-05-29T08:46:40;22.41;65.37
75164;HTU21D;63746;45.402;37.922;2023-05-29T08:49:08;22.48;65.62
75164;HTU21D;63746;45.402;37.922;2023-05-29T08:51:37;22.57;65.59
75164;HTU21D;63746;45.402;37.922;2023-05-29T08:54:04;22.67;65.56
75164;HTU21D;63746;45.402;37.922;2023-05-29T08:56:30;22.79;65.51
75164;HTU21D;63746;45.402;37.922;2023-05-29T08:58:57;22.88;65.33
75164;HTU21D;63746;45.402;37.922;2023-05-29T09:01:23;22.95;65.23
75164;HTU21D;63746;45.402;37.922;2023-05-29T09:03:51;22.97;65.06
75164;HTU21D;63746;45.402;37.922;2023-05-29T09:06:17;22.95;64.87
75164;HTU21D;63746;45.402;37.922;2023-05-29T09:08:43;22.91;64.88
75164;HTU21D;63746;45.402;37.922;2023-05-29T09:11:10;22.86;64.88
75164;HTU21D;63746;45.402;37.922;2023-05-29T09:13:36;22.73;64.75
75164;HTU21D;63746;45.402;37.922;2023-05-29T09:16:01;22.61;64.84
75164;HTU21D;63746;45.402;37.922;2023-05-29T09:18:31;22.48;64.98
75164;HTU21D;63746;45.402;37.922;2023-05-29T09:20:58;22.40;65.10
75164;HTU21D;63746;45.402;37.922;2023-05-29T09:23:25;22.39;65.50
75164;HTU21D;63746;45.402;37.922;2023-05-29T09:25:53;22.38;65.43
75164;HTU21D;63746;45.402;37.922;2023-05-29T09:28:21;22.33;65.36
75164;HTU21D;63746;45.402;37.922;2023-05-29T09:30:49;22.28;65.34
75164;HTU21D;63746;45.402;37.922;2023-05-29T09:33:15;22.28;65.60
75164;HTU21D;63746;45.402;37.922;2023-05-29T09:35:43;22.31;65.62
75164;HTU21D;63746;45.402;37.922;2023-05-29T09:38:11;22.34;65.46
75164;HTU21D;63746;45.402;37.922;2023-05-29T09:40:38;22.31;65.32
75164;HTU21D;63746;45.402;37.922;2023-05-29T09:43:16;22.23;65.48
75164;HTU21D;63746;45.402;37.922;2023-05-29T09:45:47;22.16;65.35
75164;HTU21D;63746;45.402;37.922;2023-05-29T09:48:18;22.07;65.41
75164;HTU21D;63746;45.402;37.922;2023-05-29T09:50:45;21.99;65.37
75164;HTU21D;63746;45.402;37.922;2023-05-29T09:53:24;21.93;65.79
75164;HTU21D;63746;45.402;37.922;2023-05-29T09:55:54;21.90;65.72
75164;HTU21D;63746;45.402;37.922;2023-05-29T09:58:23;21.88;65.78
75164;HTU21D;63746;45.402;37.922;2023-05-29T10:00:50;21.81;65.76
75164;HTU21D;63746;45.402;37.922;2023-05-29T10:03:19;21.84;65.85
75164;HTU21D;63746;45.402;37.922;2023-05-29T10:05:49;21.84;65.81
75164;HTU21D;63746;45.402;37.922;2023-05-29T10:08:18;21.81;65.77
75164;HTU21D;63746;45.402;37.922;2023-05-29T10:10:47;21.77;65.72
75164;HTU21D;63746;45.402;37.922;2023-05-29T10:13:14;21.74;65.75
75164;HTU21D;63746;45.402;37.922;2023-05-29T10:15:45;21.69;65.90
75164;HTU21D;63746;45.402;37.922;2023-05-29T10:18:24;21.69;66.59
75164;HTU21D;63746;45.402;37.922;2023-05-29T10:20:53;21.73;66.04
75164;HTU21D;63746;45.402;37.922;2023-05-29T10:23:24;21.74;65.96
75164;HTU21D;63746;45.402;37.922;2023-05-29T10:25:57;21.74;66.03
75164;HTU21D;63746;45.402;37.922;2023-05-29T10:28:27;21.69;65.88
75164;HTU21D;63746;45.402;37.922;2023-05-29T10:36:17;21.54;66.14
75164;HTU21D;63746;45.402;37.922;2023-05-29T10:38:47;21.49;66.11
75164;HTU21D;63746;45.402;37.922;2023-05-29T10:43:59;21.38;66.26
75164;HTU21D;63746;45.402;37.922;2023-05-29T10:49:20;21.30;66.67
75164;HTU21D;63746;45.402;37.922;2023-05-29T10:51:47;21.25;66.20
75164;HTU21D;63746;45.402;37.922;2023-05-29T10:54:14;21.21;66.31
75164;HTU21D;63746;45.402;37.922;2023-05-29T10:56:40;21.18;66.35
75164;HTU21D;63746;45.402;37.922;2023-05-29T10:59:09;21.22;66.61
75164;HTU21D;63746;45.402;37.922;2023-05-29T11:01:38;21.29;66.69
75164;HTU21D;63746;45.402;37.922;2023-05-29T11:04:30;21.32;67.35
75164;HTU21D;63746;45.402;37.922;2023-05-29T11:06:58;21.32;66.36
75164;HTU21D;63746;45.402;37.922;2023-05-29T11:09:38;21.34;66.85
75164;HTU21D;63746;45.402;37.922;2023-05-29T11:12:25;21.34;66.86
75164;HTU21D;63746;45.402;37.922;2023-05-29T11:15:11;21.32;66.78
75164;HTU21D;63746;45.402;37.922;2023-05-29T11:20:17;21.23;66.31
75164;HTU21D;63746;45.402;37.922;2023-05-29T11:25:15;21.18;66.26
75164;HTU21D;63746;45.402;37.922;2023-05-29T11:27:43;21.15;66.33
75164;HTU21D;63746;45.402;37.922;2023-05-29T11:30:09;21.09;66.30
75164;HTU21D;63746;45.402;37.922;2023-05-29T11:32:36;21.13;66.53
75164;HTU21D;63746;45.402;37.922;2023-05-29T11:35:10;21.11;66.71
75164;HTU21D;63746;45.402;37.922;2023-05-29T11:37:37;21.09;66.41
75164;HTU21D;63746;45.402;37.922;2023-05-29T11:40:06;21.07;66.53
75164;HTU21D;63746;45.402;37.922;2023-05-29T11:42:43;21.06;66.59
75164;HTU21D;63746;45.402;37.922;2023-05-29T11:47:53;21.00;66.91
75164;HTU21D;63746;45.402;37.922;2023-05-29T11:50:24;20.95;66.62
75164;HTU21D;63746;45.402;37.922;2023-05-29T11:52:50;20.92;66.46
75164;HTU21D;63746;45.402;37.922;2023-05-29T11:55:20;20.87;66.49
75164;HTU21D;63746;45.402;37.922;2023-05-29T11:57:51;20.83;66.69
75164;HTU21D;63746;45.402;37.922;2023-05-29T12:00:18;20.80;66.57
75164;HTU21D;63746;45.402;37.922;2023-05-29T12:02:45;20.77;66.65
75164;HTU21D;63746;45.402;37.922;2023-05-29T12:05:15;20.75;66.62
75164;HTU21D;63746;45.402;37.922;2023-05-29T12:07:52;20.72;67.05
75164;HTU21D;63746;45.402;37.922;2023-05-29T12:10:20;20.71;66.79
75164;HTU21D;63746;45.402;37.922;2023-05-29T12:12:57;20.69;67.30
75164;HTU21D;63746;45.402;37.922;2023-05-29T12:15:24;20.68;66.79
75164;HTU21D;63746;45.402;37.922;2023-05-29T12:17:51;20.63;66.78
75164;HTU21D;63746;45.402;37.922;2023-05-29T12:20:18;20.63;66.80
75164;HTU21D;63746;45.402;37.922;2023-05-29T12:22:45;20.64;66.89
75164;HTU21D;63746;45.402;37.922;2023-05-29T12:25:20;20.65;67.37
75164;HTU21D;63746;45.402;37.922;2023-05-29T12:27:48;20.66;66.91
75164;HTU21D;63746;45.402;37.922;2023-05-29T12:30:24;20.65;67.34
75164;HTU21D;63746;45.402;37.922;2023-05-29T12:32:52;20.65;66.86
75164;HTU21D;63746;45.402;37.922;2023-05-29T12:35:22;20.63;66.93
75164;HTU21D;63746;45.402;37.922;2023-05-29T12:40:28;20.61;66.89
75164;HTU21D;63746;45.402;37.922;2023-05-29T12:43:01;20.59;67.02
75164;HTU21D;63746;45.402;37.922;2023-05-29T12:45:31;20.59;66.94
75164;HTU21D;63746;45.402;37.922;2023-05-29T12:48:03;20.58;67.13
75164;HTU21D;63746;45.402;37.922;2023-05-29T12:50:30;20.57;67.01
75164;HTU21D;63746;45.402;37.922;2023-05-29T12:53:03;20.54;67.19
75164;HTU21D;63746;45.402;37.922;2023-05-29T12:55:31;20.54;67.00
75164;HTU21D;63746;45.402;37.922;2023-05-29T12:58:09;20.55;67.22
75164;HTU21D;63746;45.402;37.922;2023-05-29T13:00:36;20.56;67.02
75164;HTU21D;63746;45.402;37.922;2023-05-29T13:03:04;20.54;66.97
75164;HTU21D;63746;45.402;37.922;2023-05-29T13:05:32;20.54;66.98
75164;HTU21D;63746;45.402;37.922;2023-05-29T13:07:58;20.56;66.99
75164;HTU21D;63746;45.402;37.922;2023-05-29T13:10:25;20.57;67.01
75164;HTU21D;63746;45.402;37.922;2023-05-29T13:12:55;20.55;67.02
75164;HTU21D;63746;45.402;37.922;2023-05-29T13:15:25;20.56;67.01
75164;HTU21D;63746;45.402;37.922;2023-05-29T13:17:52;20.58;67.13
75164;HTU21D;63746;45.402;37.922;2023-05-29T13:20:19;20.59;67.07
75164;HTU21D;63746;45.402;37.922;2023-05-29T13:22:47;20.61;67.14
75164;HTU21D;63746;45.402;37.922;2023-05-29T13:25:16;20.65;67.14
75164;HTU21D;63746;45.402;37.922;2023-05-29T13:27:44;20.71;67.27
75164;HTU21D;63746;45.402;37.922;2023-05-29T13:30:11;20.77;67.21
75164;HTU21D;63746;45.402;37.922;2023-05-29T13:32:38;20.80;67.16
75164;HTU21D;63746;45.402;37.922;2023-05-29T13:35:04;20.85;67.18
75164;HTU21D;63746;45.402;37.922;2023-05-29T13:37:31;20.89;67.32
75164;HTU21D;63746;45.402;37.922;2023-05-29T13:39:57;20.94;67.14
75164;HTU21D;63746;45.402;37.922;2023-05-29T13:42:23;21.00;67.23
75164;HTU21D;63746;45.402;37.922;2023-05-29T13:44:50;21.02;67.05
75164;HTU21D;63746;45.402;37.922;2023-05-29T13:47:16;21.06;67.08
75164;HTU21D;63746;45.402;37.922;2023-05-29T13:49:42;21.07;67.03
75164;HTU21D;63746;45.402;37.922;2023-05-29T13:52:08;21.09;66.98
75164;HTU21D;63746;45.402;37.922;2023-05-29T13:54:35;21.09;66.95
75164;HTU21D;63746;45.402;37.922;2023-05-29T13:57:02;21.11;66.85
75164;HTU21D;63746;45.402;37.922;2023-05-29T13:59:37;21.13;67.36
75164;HTU21D;63746;45.402;37.922;2023-05-29T14:02:04;21.13;66.88
75164;HTU21D;63746;45.402;37.922;2023-05-29T14:04:31;21.13;66.94
75164;HTU21D;63746;45.402;37.922;2023-05-29T14:06:57;21.14;66.94
75164;HTU21D;63746;45.402;37.922;2023-05-29T14:09:23;21.17;67.05
75164;HTU21D;63746;45.402;37.922;2023-05-29T14:11:58;21.19;67.19
75164;HTU21D;63746;45.402;37.922;2023-05-29T14:14:25;21.22;66.92
75164;HTU21D;63746;45.402;37.922;2023-05-29T14:16:51;21.23;66.94
75164;HTU21D;63746;45.402;37.922;2023-05-29T14:19:18;21.25;66.91
75164;HTU21D;63746;45.402;37.922;2023-05-29T14:21:45;21.24;66.95
75164;HTU21D;63746;45.402;37.922;2023-05-29T14:24:11;21.25;66.92
75164;HTU21D;63746;45.402;37.922;2023-05-29T14:26:38;21.27;66.89
75164;HTU21D;63746;45.402;37.922;2023-05-29T14:29:04;21.28;66.94
75164;HTU21D;63746;45.402;37.922;2023-05-29T14:31:31;21.30;66.95
75164;HTU21D;63746;45.402;37.922;2023-05-29T14:33:58;21.32;66.95
75164;HTU21D;63746;45.402;37.922;2023-05-29T14:36:24;21.33;66.88
75164;HTU21D;63746;45.402;37.922;2023-05-29T14:38:50;21.36;66.97
75164;HTU21D;63746;45.402;37.922;2023-05-29T14:41:16;21.37;66.81
75164;HTU21D;63746;45.402;37.922;2023-05-29T14:43:42;21.40;66.92
75164;HTU21D;63746;45.402;37.922;2023-05-29T14:46:09;21.43;66.78
75164;HTU21D;63746;45.402;37.922;2023-05-29T14:48:35;21.44;66.81
75164;HTU21D;63746;45.402;37.922;2023-05-29T14:51:01;21.47;66.74
75164;HTU21D;63746;45.402;37.922;2023-05-29T14:53:27;21.49;66.74
75164;HTU21D;63746;45.402;37.922;2023-05-29T14:55:53;21.53;66.81
75164;HTU21D;63746;45.402;37.922;2023-05-29T14:58:21;21.57;66.75
75164;HTU21D;63746;45.402;37.922;2023-05-29T15:00:47;21.60;66.69
75164;HTU21D;63746;45.402;37.922;2023-05-29T15:03:13;21.61;66.72
75164;HTU21D;63746;45.402;37.922;2023-05-29T15:05:40;21.60;66.64
75164;HTU21D;63746;45.402;37.922;2023-05-29T15:08:06;21.61;66.59
75164;HTU21D;63746;45.402;37.922;2023-05-29T15:10:32;21.59;66.62
75164;HTU21D;63746;45.402;37.922;2023-05-29T15:12:58;21.58;66.56
75164;HTU21D;63746;45.402;37.922;2023-05-29T15:15:27;21.57;66.58
75164;HTU21D;63746;45.402;37.922;2023-05-29T15:17:54;21.57;66.57
75164;HTU21D;63746;45.402;37.922;2023-05-29T15:20:25;21.54;66.58
75164;HTU21D;63746;45.402;37.922;2023-05-29T15:22:52;21.53;66.62
75164;HTU21D;63746;45.402;37.922;2023-05-29T15:25:20;21.51;66.59
75164;HTU21D;63746;45.402;37.922;2023-05-29T15:27:46;21.49;66.60
75164;HTU21D;63746;45.402;37.922;2023-05-29T15:30:14;21.50;66.69
75164;HTU21D;63746;45.402;37.922;2023-05-29T15:32:42;21.53;66.77
75164;HTU21D;63746;45.402;37.922;2023-05-29T15:35:13;21.55;66.84
75164;HTU21D;63746;45.402;37.922;2023-05-29T15:37:40;21.59;66.67
75164;HTU21D;63746;45.402;37.922;2023-05-29T15:40:07;21.60;66.60
75164;HTU21D;63746;45.402;37.922;2023-05-29T15:42:35;21.61;66.57
75164;HTU21D;63746;45.402;37.922;2023-05-29T15:45:02;21.60;66.62